Time;durP1;ratioP1;P1;durP2;ratioP2;P2;SDS_P1;SDS_P2;PMS_P1;PMS_P2;Temp;Humidity;BMP_temperature;BMP_pressure;BME280_temperature;BME280_humidity;BME280_pressure;Samples;Min_cycle;Max_cycle;Signal;HPM_P1;HPM_P2
2021/10/08 00:00:55;;;;;;;10.50;9.60;;;8.50;82.60;;;;;;5018119;29;20049;-67
2021/10/08 00:03:27;;;;;;;10.88;9.85;;;8.50;82.30;;;;;;5020321;29;20077;-67
2021/10/08 00:05:59;;;;;;;9.77;8.98;;;8.50;82.60;;;;;;5018861;29;20049;-68
2021/10/08 00:08:31;;;;;;;9.90;9.10;;;8.60;82.10;;;;;;5020646;29;20081;-67
2021/10/08 00:11:03;;;;;;;10.00;9.20;;;8.50;83.10;;;;;;5018107;29;20528;-68
2021/10/08 00:13:35;;;;;;;10.63;9.73;;;8.50;82.80;;;;;;5020893;29;20057;-68
2021/10/08 00:16:11;;;;;;;10.25;9.40;;;8.50;83.00;;;;;;5017118;29;20049;-68
2021/10/08 00:18:44;;;;;;;11.10;10.00;;;8.40;83.10;;;;;;5019730;29;20045;-68
2021/10/08 00:21:17;;;;;;;10.15;9.35;;;8.40;83.50;;;;;;5017981;29;20067;-69
2021/10/08 00:23:50;;;;;;;9.80;9.00;;;8.30;83.30;;;;;;4978774;29;20065;-69
2021/10/08 00:26:22;;;;;;;10.82;9.88;;;8.30;84.10;;;;;;5016427;29;20072;-68
2021/10/08 00:28:53;;;;;;;9.52;8.82;;;8.30;83.80;;;;;;5018939;29;20053;-69
2021/10/08 00:31:25;;;;;;;10.15;9.35;;;8.30;83.60;;;;;;5017561;29;20053;-70
2021/10/08 00:33:57;;;;;;;10.15;9.35;;;8.30;83.90;;;;;;5019810;29;20053;-69
2021/10/08 00:36:30;;;;;;;10.65;9.75;;;8.30;84.30;;;;;;5000296;29;20713;-69
2021/10/08 00:39:03;;;;;;;11.35;10.45;;;8.40;84.10;;;;;;5003874;29;20140;-70
2021/10/08 00:41:35;;;;;;;9.88;9.07;;;8.40;84.20;;;;;;5000070;29;20525;-67
2021/10/08 00:44:07;;;;;;;10.00;9.20;;;8.40;83.80;;;;;;5018254;29;20049;-68
2021/10/08 00:46:39;;;;;;;10.20;9.40;;;8.40;83.80;;;;;;5000794;29;20049;-68
2021/10/08 00:49:11;;;;;;;10.32;9.52;;;8.40;84.10;;;;;;5018271;29;20543;-70
2021/10/08 00:51:43;;;;;;;10.30;9.40;;;8.40;84.00;;;;;;5001633;29;20167;-69
2021/10/08 00:54:15;;;;;;;9.95;9.15;;;8.40;84.10;;;;;;5019265;29;20061;-69
2021/10/08 00:56:47;;;;;;;10.00;9.20;;;8.40;83.80;;;;;;5017221;29;20720;-70
2021/10/08 00:59:19;;;;;;;10.43;9.52;;;8.40;83.70;;;;;;5019632;29;20061;-70
2021/10/08 01:01:51;;;;;;;10.48;9.57;;;8.40;84.40;;;;;;5017460;29;20137;-68
2021/10/08 01:04:24;;;;;;;10.38;9.55;;;8.40;84.00;;;;;;5018146;29;20057;-68
2021/10/08 01:06:58;;;;;;;10.45;9.52;;;8.40;84.10;;;;;;5015583;29;20595;-68
2021/10/08 01:09:30;;;;;;;10.07;9.23;;;8.40;84.20;;;;;;5002306;29;20129;-68
2021/10/08 01:12:03;;;;;;;10.02;9.23;;;8.40;85.10;;;;;;5000422;29;20586;-68
2021/10/08 01:14:41;;;;;;;10.32;9.52;;;8.30;85.40;;;;;;4999787;29;20126;-68
2021/10/08 01:17:18;;;;;;;10.45;9.55;;;8.20;86.10;;;;;;5017020;29;20050;-68
2021/10/08 01:20:01;;;;;;;10.38;9.57;;;8.20;86.10;;;;;;5002501;29;20049;-68
2021/10/08 01:22:37;;;;;;;10.95;9.95;;;8.20;85.30;;;;;;5000943;29;20057;-68
2021/10/08 01:25:14;;;;;;;10.38;9.48;;;8.20;85.30;;;;;;5003158;29;20061;-69
2021/10/08 01:27:46;;;;;;;10.32;9.52;;;8.30;86.00;;;;;;5014056;29;20065;-68
2021/10/08 01:30:27;;;;;;;10.32;9.43;;;8.30;85.40;;;;;;5000815;29;20579;-69
2021/10/08 01:33:00;;;;;;;10.00;9.15;;;8.30;85.30;;;;;;4999394;29;20053;-69
2021/10/08 01:35:33;;;;;;;10.70;9.80;;;8.30;85.40;;;;;;5000256;29;20046;-68
2021/10/08 01:38:07;;;;;;;11.27;10.30;;;8.40;85.50;;;;;;4998994;29;20106;-67
2021/10/08 01:40:41;;;;;;;10.27;9.45;;;8.30;85.40;;;;;;5015084;29;20053;-68
2021/10/08 01:43:18;;;;;;;11.00;10.00;;;8.30;85.30;;;;;;5001296;29;20053;-67
2021/10/08 01:45:53;;;;;;;10.52;9.60;;;8.40;85.50;;;;;;4984890;29;20583;-68
2021/10/08 01:48:35;;;;;;;10.48;9.65;;;8.30;85.80;;;;;;5016050;29;20053;-69
2021/10/08 01:51:08;;;;;;;10.23;9.32;;;8.30;85.30;;;;;;4994434;29;20497;-68
2021/10/08 01:53:44;;;;;;;10.40;9.50;;;8.40;85.40;;;;;;5006197;29;20487;-67
2021/10/08 01:56:16;;;;;;;10.23;9.23;;;8.40;85.90;;;;;;4975245;29;20124;-67
2021/10/08 01:58:59;;;;;;;9.95;9.15;;;8.40;85.30;;;;;;5016024;29;20080;-67
2021/10/08 02:01:33;;;;;;;10.50;9.50;;;8.30;85.70;;;;;;4986423;29;20049;-67
2021/10/08 02:04:09;;;;;;;10.30;9.50;;;8.30;86.30;;;;;;5015080;29;20567;-68
2021/10/08 02:06:42;;;;;;;10.63;9.60;;;8.40;85.70;;;;;;4998070;29;20059;-68
2021/10/08 02:09:14;;;;;;;10.30;9.20;;;8.40;85.60;;;;;;5001340;29;20546;-68
2021/10/08 02:11:48;;;;;;;10.20;9.40;;;8.40;85.80;;;;;;4999673;29;20048;-70
2021/10/08 02:14:20;;;;;;;10.52;9.55;;;8.40;85.60;;;;;;4996645;29;20104;-71
2021/10/08 02:16:56;;;;;;;10.73;9.73;;;8.40;85.70;;;;;;4997626;29;20711;-68
2021/10/08 02:19:28;;;;;;;10.50;9.63;;;8.40;85.50;;;;;;5001033;29;20756;-68
2021/10/08 02:22:05;;;;;;;10.43;9.63;;;8.50;86.00;;;;;;4999216;29;20046;-69
2021/10/08 02:24:41;;;;;;;10.73;9.93;;;8.50;86.00;;;;;;4995186;29;20061;-67
2021/10/08 02:27:13;;;;;;;10.48;9.57;;;8.50;86.30;;;;;;4998131;29;20152;-67
2021/10/08 02:29:46;;;;;;;10.20;9.30;;;8.50;86.20;;;;;;4978952;29;20059;-67
2021/10/08 02:32:21;;;;;;;10.43;9.52;;;8.50;86.40;;;;;;4999277;29;20046;-68
2021/10/08 02:34:52;;;;;;;10.07;9.23;;;8.50;86.20;;;;;;5014232;29;20049;-67
2021/10/08 02:37:24;;;;;;;10.52;9.63;;;8.50;86.00;;;;;;4999765;29;20145;-68
2021/10/08 02:39:57;;;;;;;9.85;8.95;;;8.50;86.40;;;;;;4998588;29;20940;-68
2021/10/08 02:42:29;;;;;;;10.50;9.60;;;8.50;86.30;;;;;;5000347;29;20060;-68
2021/10/08 02:45:01;;;;;;;10.02;9.23;;;8.50;86.60;;;;;;5000554;29;20121;-69
2021/10/08 02:47:33;;;;;;;10.40;9.50;;;8.40;86.60;;;;;;4997588;29;20056;-68
2021/10/08 02:50:05;;;;;;;11.05;10.05;;;8.40;87.10;;;;;;5015145;29;20045;-68
2021/10/08 02:52:38;;;;;;;10.30;9.40;;;8.40;86.50;;;;;;5015569;29;20140;-67
2021/10/08 02:55:12;;;;;;;10.13;9.30;;;8.40;86.40;;;;;;4998873;29;20684;-68
2021/10/08 02:57:44;;;;;;;10.68;9.30;;;8.40;86.40;;;;;;4994943;29;20697;-67
2021/10/08 03:00:16;;;;;;;10.20;9.32;;;8.50;86.30;;;;;;4999901;29;20057;-68
2021/10/08 03:02:48;;;;;;;9.85;9.05;;;8.50;86.40;;;;;;5000129;29;20137;-68
2021/10/08 03:05:21;;;;;;;10.40;9.50;;;8.50;86.50;;;;;;5000044;29;20057;-68
2021/10/08 03:07:54;;;;;;;10.38;9.52;;;8.50;86.70;;;;;;4999483;29;20060;-67
2021/10/08 03:10:26;;;;;;;11.02;10.05;;;8.50;86.40;;;;;;4962524;29;20050;-68
2021/10/08 03:12:58;;;;;;;10.95;10.05;;;8.60;86.30;;;;;;5017469;29;20095;-67
2021/10/08 03:15:31;;;;;;;10.75;9.85;;;8.60;86.70;;;;;;5014950;29;20061;-68
2021/10/08 03:18:03;;;;;;;10.73;9.82;;;8.50;86.80;;;;;;5000623;29;20041;-68
2021/10/08 03:20:35;;;;;;;11.50;10.38;;;8.60;86.80;;;;;;4993877;29;20049;-68
2021/10/08 03:23:08;;;;;;;10.38;9.57;;;8.50;87.40;;;;;;5000484;29;20053;-68
2021/10/08 03:25:40;;;;;;;10.95;9.82;;;8.50;87.50;;;;;;5014817;29;20185;-69
2021/10/08 03:28:13;;;;;;;10.73;9.65;;;8.40;88.30;;;;;;5001442;29;20057;-70
2021/10/08 03:30:45;;;;;;;11.15;10.23;;;8.30;89.00;;;;;;4995552;29;20517;-70
2021/10/08 03:33:18;;;;;;;11.00;10.00;;;8.20;89.80;;;;;;5014613;29;20057;-68
2021/10/08 03:35:52;;;;;;;11.05;10.13;;;8.20;89.20;;;;;;4998743;29;20105;-67
2021/10/08 03:38:24;;;;;;;11.27;10.38;;;8.30;89.00;;;;;;5017115;29;20120;-67
2021/10/08 03:43:31;;;;;;;10.57;9.70;;;8.40;88.50;;;;;;5016590;29;20107;-68
2021/10/08 03:46:08;;;;;;;10.70;9.80;;;8.50;88.30;;;;;;4990183;29;20056;-68
2021/10/08 03:51:32;;;;;;;10.52;9.63;;;8.50;88.10;;;;;;5015573;29;20049;-67
2021/10/08 03:54:05;;;;;;;10.00;9.10;;;8.50;88.00;;;;;;5001457;29;20129;-67
2021/10/08 03:56:37;;;;;;;13.50;10.40;;;8.60;87.80;;;;;;4998929;29;20081;-68
2021/10/08 03:59:11;;;;;;;10.32;9.52;;;8.60;87.80;;;;;;5018876;29;20037;-67
2021/10/08 04:01:48;;;;;;;10.65;9.85;;;8.60;87.80;;;;;;5001807;29;20048;-70
2021/10/08 04:04:21;;;;;;;10.10;9.30;;;8.60;87.90;;;;;;5016785;29;20046;-68
2021/10/08 04:06:53;;;;;;;10.40;9.50;;;8.60;87.80;;;;;;5001936;29;20061;-68
2021/10/08 04:09:26;;;;;;;11.43;10.40;;;8.50;88.50;;;;;;5003508;29;20057;-70
2021/10/08 04:11:58;;;;;;;12.27;11.18;;;8.50;88.50;;;;;;5017283;29;20049;-68
2021/10/08 04:14:31;;;;;;;12.00;10.90;;;8.50;88.90;;;;;;5018497;29;20057;-67
2021/10/08 04:17:04;;;;;;;12.43;11.23;;;8.50;89.10;;;;;;5016386;29;20049;-67
2021/10/08 04:19:37;;;;;;;11.45;10.38;;;8.60;88.90;;;;;;5017803;29;20546;-68
2021/10/08 04:22:09;;;;;;;11.85;10.80;;;8.60;88.80;;;;;;5017333;29;20077;-67
2021/10/08 04:24:41;;;;;;;11.73;10.63;;;8.60;88.90;;;;;;5016136;29;20150;-69
2021/10/08 04:27:14;;;;;;;13.02;11.80;;;8.70;89.70;;;;;;5004259;29;20046;-67
2021/10/08 04:29:47;;;;;;;11.10;9.95;;;8.70;88.80;;;;;;5002934;29;20077;-67
2021/10/08 04:32:20;;;;;;;11.35;10.35;;;8.70;88.60;;;;;;5005329;29;20052;-68
2021/10/08 04:34:52;;;;;;;11.50;10.50;;;8.70;89.40;;;;;;5017055;29;20041;-68
2021/10/08 04:37:27;;;;;;;10.88;9.98;;;8.70;88.90;;;;;;5016211;29;20038;-68
2021/10/08 04:40:00;;;;;;;11.60;10.60;;;8.60;88.90;;;;;;5002723;29;20064;-68
2021/10/08 04:42:33;;;;;;;11.18;10.18;;;8.60;89.20;;;;;;5017820;29;20141;-67
2021/10/08 04:45:06;;;;;;;11.43;10.43;;;8.60;89.00;;;;;;5017690;29;20045;-69
2021/10/08 04:47:39;;;;;;;12.07;10.98;;;8.60;88.90;;;;;;4996054;29;20148;-67
2021/10/08 04:50:11;;;;;;;11.57;10.48;;;8.70;89.10;;;;;;5014380;29;20042;-69
2021/10/08 04:52:47;;;;;;;12.35;11.20;;;8.70;88.90;;;;;;5017238;29;20053;-67
2021/10/08 04:55:19;;;;;;;11.50;10.50;;;8.70;88.70;;;;;;5016155;29;20164;-70
2021/10/08 04:57:52;;;;;;;11.48;10.48;;;8.70;88.80;;;;;;5018382;29;20045;-67
2021/10/08 05:00:25;;;;;;;11.13;10.23;;;8.70;88.90;;;;;;5001147;29;20479;-69
2021/10/08 05:02:57;;;;;;;11.93;10.93;;;8.70;89.20;;;;;;5017532;29;20500;-68
2021/10/08 05:05:29;;;;;;;11.32;10.20;;;8.70;89.10;;;;;;5015419;29;20053;-68
2021/10/08 05:08:03;;;;;;;11.57;10.65;;;8.70;89.70;;;;;;5015290;29;20065;-69
2021/10/08 05:10:36;;;;;;;11.38;10.48;;;8.70;89.20;;;;;;5000072;29;20045;-69
2021/10/08 05:13:08;;;;;;;11.35;10.27;;;8.70;88.80;;;;;;5016710;29;20149;-67
2021/10/08 05:15:41;;;;;;;11.70;10.68;;;8.80;88.90;;;;;;5013325;29;20905;-67
2021/10/08 05:18:13;;;;;;;10.70;9.80;;;8.80;89.00;;;;;;4999436;29;20050;-70
2021/10/08 05:20:46;;;;;;;10.60;9.60;;;8.80;88.80;;;;;;5001088;29;20310;-68
2021/10/08 05:23:19;;;;;;;11.15;10.05;;;8.80;88.80;;;;;;4995283;29;20049;-68
2021/10/08 05:25:51;;;;;;;11.23;10.23;;;8.70;88.90;;;;;;5015231;29;20140;-68
2021/10/08 05:28:26;;;;;;;11.10;10.10;;;8.70;89.00;;;;;;4999280;29;20045;-68
2021/10/08 05:30:59;;;;;;;10.85;9.82;;;8.60;89.00;;;;;;4999454;29;20051;-68
2021/10/08 05:33:32;;;;;;;10.13;9.25;;;8.60;88.90;;;;;;5000689;29;20061;-68
2021/10/08 05:36:05;;;;;;;10.60;9.70;;;8.40;89.90;;;;;;5007135;29;20477;-68
2021/10/08 05:38:37;;;;;;;10.30;9.40;;;8.20;90.60;;;;;;4998758;29;20053;-69
2021/10/08 05:41:14;;;;;;;10.68;9.77;;;8.30;90.40;;;;;;4998584;29;20109;-68
2021/10/08 05:43:51;;;;;;;10.45;9.55;;;8.40;89.80;;;;;;5001177;29;20049;-69
2021/10/08 05:46:25;;;;;;;10.52;9.63;;;8.40;90.00;;;;;;5013641;29;20098;-70
2021/10/08 05:48:57;;;;;;;10.60;9.77;;;8.40;89.60;;;;;;4995954;29;20041;-70
2021/10/08 05:51:29;;;;;;;10.82;9.93;;;8.50;89.50;;;;;;4995057;29;20059;-69
2021/10/08 05:54:01;;;;;;;11.27;10.27;;;8.50;89.50;;;;;;5016896;29;20053;-71
2021/10/08 05:56:34;;;;;;;10.30;9.48;;;8.50;89.10;;;;;;4999442;29;20048;-70
2021/10/08 05:59:06;;;;;;;10.82;10.00;;;8.50;89.00;;;;;;4993850;29;20073;-70
2021/10/08 06:01:38;;;;;;;10.68;9.77;;;8.60;88.80;;;;;;5000135;29;20145;-68
2021/10/08 06:04:10;;;;;;;9.77;8.93;;;8.60;88.60;;;;;;4999930;29;20045;-70
2021/10/08 06:06:45;;;;;;;10.40;9.40;;;8.70;88.40;;;;;;4999838;29;20526;-69
2021/10/08 06:09:19;;;;;;;10.43;9.20;;;8.70;88.30;;;;;;4999947;29;20049;-69
2021/10/08 06:11:51;;;;;;;10.07;9.25;;;8.70;89.00;;;;;;4996361;29;20081;-69
2021/10/08 06:14:23;;;;;;;9.60;8.80;;;8.70;88.40;;;;;;5012888;29;20435;-69
2021/10/08 06:16:58;;;;;;;10.50;9.50;;;8.80;88.30;;;;;;4994109;29;20046;-70
2021/10/08 06:19:30;;;;;;;10.43;9.52;;;8.80;88.30;;;;;;5015104;29;20049;-69
2021/10/08 06:22:03;;;;;;;11.00;10.00;;;8.80;88.30;;;;;;5013586;29;20046;-70
2021/10/08 06:24:35;;;;;;;10.82;9.73;;;8.80;88.50;;;;;;5015105;29;20094;-69
2021/10/08 06:27:07;;;;;;;10.73;9.70;;;8.90;88.50;;;;;;4998729;29;20130;-69
2021/10/08 06:29:39;;;;;;;10.77;9.88;;;8.90;88.60;;;;;;4983090;29;20086;-70
2021/10/08 06:32:12;;;;;;;9.93;9.13;;;8.90;88.30;;;;;;4999565;29;20052;-71
2021/10/08 06:34:44;;;;;;;10.93;9.93;;;8.90;88.30;;;;;;5000523;29;20049;-69
2021/10/08 06:37:16;;;;;;;9.98;9.07;;;8.90;88.20;;;;;;4999364;29;20156;-69
2021/10/08 06:39:48;;;;;;;10.13;9.23;;;8.90;88.30;;;;;;5000418;29;20110;-69
2021/10/08 06:42:24;;;;;;;10.27;9.38;;;9.00;88.40;;;;;;4998371;29;20049;-69
2021/10/08 06:45:00;;;;;;;10.20;9.30;;;9.00;88.80;;;;;;5000127;29;20589;-69
2021/10/08 06:47:32;;;;;;;10.20;9.30;;;9.00;87.90;;;;;;5013436;29;20046;-69
2021/10/08 06:50:06;;;;;;;10.93;9.88;;;9.00;88.10;;;;;;5015003;29;21059;-71
2021/10/08 06:52:39;;;;;;;10.20;9.30;;;9.00;88.10;;;;;;5000172;29;20064;-68
2021/10/08 06:55:11;;;;;;;10.55;9.75;;;9.10;88.10;;;;;;5017044;29;20041;-70
2021/10/08 06:57:43;;;;;;;11.02;10.13;;;9.10;88.20;;;;;;5000303;29;20060;-69
2021/10/08 07:00:16;;;;;;;10.70;9.80;;;9.10;88.70;;;;;;4998227;29;20098;-70
2021/10/08 07:02:53;;;;;;;10.63;9.82;;;9.10;87.80;;;;;;5015020;29;20084;-69
2021/10/08 07:05:29;;;;;;;11.50;10.27;;;9.20;87.90;;;;;;5000204;29;20144;-70
2021/10/08 07:08:02;;;;;;;10.82;9.93;;;9.20;87.90;;;;;;4998464;29;20053;-69
2021/10/08 07:10:38;;;;;;;11.20;10.30;;;9.30;88.00;;;;;;5000162;29;20049;-69
2021/10/08 07:13:11;;;;;;;11.30;10.30;;;9.30;87.90;;;;;;4998684;29;20408;-69
2021/10/08 07:15:43;;;;;;;11.25;10.25;;;9.30;87.70;;;;;;4999271;29;20050;-69
2021/10/08 07:18:22;;;;;;;11.35;10.35;;;9.30;87.70;;;;;;5015613;29;20529;-69
2021/10/08 07:20:54;;;;;;;11.57;10.57;;;9.40;87.40;;;;;;5014979;29;20713;-69
2021/10/08 07:23:26;;;;;;;11.18;10.25;;;9.40;87.20;;;;;;5016441;29;20118;-68
2021/10/08 07:25:58;;;;;;;11.52;10.43;;;9.40;87.40;;;;;;5014395;29;20049;-69
2021/10/08 07:28:31;;;;;;;11.70;10.65;;;9.50;87.40;;;;;;5015243;29;20062;-69
2021/10/08 07:31:03;;;;;;;11.10;10.20;;;9.50;87.40;;;;;;5015332;29;20136;-69
2021/10/08 07:33:38;;;;;;;11.63;10.38;;;9.60;87.90;;;;;;5016090;29;20041;-69
2021/10/08 07:36:11;;;;;;;11.10;10.20;;;9.70;87.80;;;;;;5019584;29;20631;-70
2021/10/08 07:38:42;;;;;;;12.30;11.30;;;9.80;88.30;;;;;;5020114;29;20157;-71
2021/10/08 07:41:14;;;;;;;11.63;10.73;;;9.90;88.00;;;;;;5019029;29;20042;-69
2021/10/08 07:43:47;;;;;;;12.35;11.18;;;10.00;88.30;;;;;;5020027;29;20049;-70
2021/10/08 07:46:19;;;;;;;12.02;11.00;;;10.10;88.30;;;;;;5016349;29;20061;-69
2021/10/08 07:48:51;;;;;;;11.20;10.30;;;10.10;86.80;;;;;;5019692;29;20530;-69
2021/10/08 07:51:23;;;;;;;11.68;10.68;;;10.10;87.00;;;;;;5018597;29;20609;-70
2021/10/08 07:53:55;;;;;;;11.40;10.50;;;10.20;87.10;;;;;;5019740;29;20129;-70
2021/10/08 07:56:26;;;;;;;12.80;11.60;;;10.30;87.60;;;;;;5017630;29;20145;-70
2021/10/08 07:58:58;;;;;;;11.73;10.82;;;10.40;86.70;;;;;;5020186;29;20074;-70
2021/10/08 08:01:30;;;;;;;11.50;10.60;;;10.70;86.40;;;;;;5017282;29;20133;-69
2021/10/08 08:04:03;;;;;;;12.00;11.10;;;10.80;87.00;;;;;;5020698;29;20053;-69
2021/10/08 08:06:34;;;;;;;11.88;10.93;;;10.90;86.60;;;;;;5017253;29;20064;-70
2021/10/08 08:09:06;;;;;;;12.25;11.20;;;11.10;86.20;;;;;;5019488;29;20073;-70
2021/10/08 08:11:38;;;;;;;12.00;11.00;;;11.30;86.40;;;;;;5017573;29;20172;-70
2021/10/08 08:14:11;;;;;;;11.98;11.00;;;11.60;85.60;;;;;;5019629;29;20133;-71
2021/10/08 08:16:42;;;;;;;11.85;10.85;;;11.70;84.50;;;;;;5017787;29;20083;-72
2021/10/08 08:19:14;;;;;;;13.05;12.05;;;11.90;84.50;;;;;;5018556;29;20785;-70
2021/10/08 08:21:46;;;;;;;13.80;12.70;;;12.00;83.20;;;;;;5017526;29;20508;-69
2021/10/08 08:24:18;;;;;;;12.85;11.85;;;12.20;82.10;;;;;;5019232;29;20057;-71
2021/10/08 08:26:51;;;;;;;14.00;12.90;;;12.40;82.90;;;;;;5016330;29;20056;-69
2021/10/08 08:29:22;;;;;;;13.65;12.48;;;12.60;82.40;;;;;;5019711;29;20136;-71
2021/10/08 08:31:54;;;;;;;13.52;12.45;;;12.70;81.40;;;;;;5017723;29;20050;-70
2021/10/08 08:34:27;;;;;;;12.98;11.98;;;12.70;79.90;;;;;;5019069;29;20053;-70
2021/10/08 08:37:00;;;;;;;13.30;12.23;;;12.70;80.80;;;;;;5017707;29;20049;-70
2021/10/08 08:39:33;;;;;;;12.82;11.82;;;12.60;81.50;;;;;;5018164;29;20045;-70
2021/10/08 08:42:05;;;;;;;12.82;11.68;;;12.60;81.50;;;;;;5018542;29;20824;-70
2021/10/08 08:44:38;;;;;;;12.80;11.80;;;12.60;81.70;;;;;;5017513;29;20471;-71
2021/10/08 08:47:17;;;;;;;12.45;11.45;;;12.80;82.30;;;;;;5016403;29;20047;-71
2021/10/08 08:49:51;;;;;;;13.57;12.48;;;12.90;80.40;;;;;;5018472;29;20567;-71
2021/10/08 08:52:23;;;;;;;13.27;12.27;;;13.20;81.10;;;;;;5001924;29;20052;-70
2021/10/08 08:54:55;;;;;;;13.32;12.32;;;13.20;80.00;;;;;;5016590;29;20052;-70
2021/10/08 08:57:27;;;;;;;14.13;13.02;;;13.20;79.90;;;;;;5018035;29;20576;-70
2021/10/08 09:00:01;;;;;;;13.23;12.23;;;13.20;79.40;;;;;;5000337;29;20046;-70
2021/10/08 09:02:35;;;;;;;12.48;11.48;;;13.00;79.80;;;;;;5017852;29;20053;-72
2021/10/08 09:05:19;;;;;;;12.75;11.82;;;13.10;80.20;;;;;;5016940;29;20053;-70
2021/10/08 09:07:56;;;;;;;12.45;11.52;;;13.20;81.00;;;;;;5017846;29;20049;-70
2021/10/08 09:10:29;;;;;;;13.00;11.90;;;13.50;79.00;;;;;;5001704;29;20069;-70
2021/10/08 09:13:01;;;;;;;13.55;12.55;;;13.50;78.20;;;;;;5018147;29;20160;-70
2021/10/08 09:15:55;;;;;;;13.55;12.52;;;13.40;79.10;;;;;;5016794;29;20053;-71
2021/10/08 09:18:29;;;;;;;13.80;12.70;;;13.50;78.70;;;;;;5017747;29;21450;-69
2021/10/08 09:21:05;;;;;;;13.55;12.45;;;13.20;78.50;;;;;;5016589;29;20077;-71
2021/10/08 09:23:41;;;;;;;12.80;11.80;;;13.00;78.90;;;;;;4992486;29;20131;-69
2021/10/08 09:26:16;;;;;;;12.93;11.85;;;13.10;79.60;;;;;;5016988;29;20132;-71
2021/10/08 09:29:05;;;;;;;13.52;12.43;;;13.10;78.30;;;;;;4999190;29;20236;-70
2021/10/08 09:31:40;;;;;;;13.23;12.23;;;13.10;79.60;;;;;;5016494;29;20050;-70
2021/10/08 09:34:21;;;;;;;14.02;12.93;;;13.30;79.10;;;;;;5016588;29;20045;-70
2021/10/08 09:37:04;;;;;;;14.18;13.00;;;13.50;78.50;;;;;;5016596;29;20042;-70
2021/10/08 09:39:38;;;;;;;14.27;13.00;;;13.70;77.10;;;;;;5017682;29;20110;-71
2021/10/08 09:42:12;;;;;;;14.88;13.70;;;14.00;76.90;;;;;;5016770;29;20156;-69
2021/10/08 09:44:53;;;;;;;14.35;13.25;;;14.20;76.70;;;;;;5016030;29;20054;-71
2021/10/08 09:47:27;;;;;;;14.57;13.48;;;14.40;77.40;;;;;;5014511;29;20144;-70
2021/10/08 09:50:11;;;;;;;14.20;13.10;;;14.50;75.90;;;;;;5018601;29;20109;-71
2021/10/08 09:52:43;;;;;;;15.23;14.02;;;14.60;75.70;;;;;;5016626;29;20143;-70
2021/10/08 09:55:16;;;;;;;14.77;13.63;;;14.60;74.50;;;;;;4999652;29;20113;-69
2021/10/08 09:57:47;;;;;;;14.70;13.50;;;14.50;73.70;;;;;;5017529;29;20069;-71
2021/10/08 10:00:46;;;;;;;14.80;13.70;;;14.50;71.90;;;;;;5013590;29;20053;-69
2021/10/08 10:03:19;;;;;;;15.05;13.85;;;14.60;72.50;;;;;;5016409;29;20078;-72
2021/10/08 10:05:51;;;;;;;14.93;13.68;;;14.50;73.60;;;;;;5015706;29;20141;-70
2021/10/08 10:08:23;;;;;;;14.43;13.32;;;14.60;72.60;;;;;;5016943;29;20571;-71
2021/10/08 10:10:56;;;;;;;14.88;13.77;;;14.50;73.70;;;;;;5017010;29;20051;-71
2021/10/08 10:13:31;;;;;;;15.32;14.07;;;14.50;72.30;;;;;;5017498;29;20396;-69
2021/10/08 10:16:04;;;;;;;14.88;13.73;;;14.60;73.20;;;;;;5014763;29;20052;-70
2021/10/08 10:18:36;;;;;;;15.40;14.18;;;14.70;72.30;;;;;;5012344;29;20099;-71
2021/10/08 10:21:09;;;;;;;14.80;13.70;;;14.90;72.70;;;;;;5014320;29;20067;-70
2021/10/08 10:23:42;;;;;;;15.18;13.98;;;14.90;71.80;;;;;;5015030;29;20054;-71
2021/10/08 10:26:14;;;;;;;15.35;14.15;;;14.90;72.20;;;;;;5013583;29;20102;-72
2021/10/08 10:28:47;;;;;;;14.50;13.40;;;15.00;71.60;;;;;;5013452;29;20210;-72
2021/10/08 10:31:23;;;;;;;14.68;13.52;;;15.00;71.70;;;;;;5000452;29;20056;-72
2021/10/08 10:34:00;;;;;;;15.48;14.27;;;15.00;72.40;;;;;;5013473;29;20045;-71
2021/10/08 10:36:42;;;;;;;15.60;14.40;;;15.00;71.30;;;;;;5014278;29;20080;-70
2021/10/08 10:39:20;;;;;;;15.18;14.07;;;15.10;72.10;;;;;;5015669;29;20233;-72
2021/10/08 10:42:01;;;;;;;15.23;14.13;;;15.20;71.00;;;;;;5015799;29;20128;-70
2021/10/08 10:47:29;;;;;;;15.32;14.13;;;15.40;72.10;;;;;;5014080;29;20478;-71
2021/10/08 10:50:11;;;;;;;15.05;13.95;;;15.50;72.00;;;;;;5013814;29;20069;-72
2021/10/08 10:52:55;;;;;;;15.18;14.00;;;15.50;70.50;;;;;;5011354;29;20110;-70
2021/10/08 10:55:33;;;;;;;15.80;14.60;;;15.50;71.90;;;;;;5015324;29;20073;-71
2021/10/08 10:58:10;;;;;;;15.68;14.48;;;15.70;72.00;;;;;;5014481;29;20049;-71
2021/10/08 11:00:45;;;;;;;15.70;14.50;;;15.70;71.10;;;;;;4998038;29;20128;-71
2021/10/08 11:03:31;;;;;;;15.48;14.27;;;15.70;71.00;;;;;;5016290;29;20133;-72
2021/10/08 11:06:15;;;;;;;15.63;14.43;;;15.70;69.60;;;;;;5016328;29;20461;-72
2021/10/08 11:09:08;;;;;;;15.40;14.20;;;15.70;70.60;;;;;;5017350;29;20064;-72
2021/10/08 11:11:40;;;;;;;15.65;14.45;;;15.70;70.80;;;;;;5022147;29;20833;-71
2021/10/08 11:14:17;;;;;;;15.25;14.07;;;15.80;70.10;;;;;;5020311;29;20121;-70
2021/10/08 11:16:49;;;;;;;15.68;14.48;;;15.80;70.30;;;;;;5013933;29;20057;-70
2021/10/08 11:19:41;;;;;;;16.48;15.27;;;15.80;70.80;;;;;;5018713;29;20049;-70
2021/10/08 11:22:13;;;;;;;15.32;14.15;;;15.80;70.00;;;;;;5021316;29;20424;-70
2021/10/08 11:25:03;;;;;;;16.05;14.43;;;15.80;68.90;;;;;;5019400;29;20077;-71
2021/10/08 11:27:35;;;;;;;;;;;15.70;69.50;;;;;;5018049;29;20520;-70
2021/10/08 11:30:07;;;;;;;16.38;14.98;;;15.80;68.60;;;;;;5019723;29;20071;-69
2021/10/08 11:32:48;;;;;;;15.30;14.10;;;15.80;68.30;;;;;;5021249;29;20102;-71
2021/10/08 11:35:29;;;;;;;;;;;15.80;68.30;;;;;;5014080;29;20049;-71
2021/10/08 11:38:04;;;;;;;15.35;14.23;;;15.80;68.50;;;;;;5016906;29;19928;-72
2021/10/08 11:40:44;;;;;;;15.85;14.65;;;15.70;67.20;;;;;;5016701;29;20182;-70
2021/10/08 11:43:27;;;;;;;15.50;14.25;;;15.80;68.20;;;;;;5016005;29;20136;-70
2021/10/08 11:46:18;;;;;;;15.65;14.45;;;15.80;68.80;;;;;;5019276;29;20140;-70
2021/10/08 11:48:55;;;;;;;15.70;14.50;;;15.80;67.90;;;;;;5021888;29;20057;-69
2021/10/08 11:51:28;;;;;;;14.88;13.68;;;15.90;68.60;;;;;;5015591;29;20061;-69
2021/10/08 11:54:00;;;;;;;15.30;14.13;;;16.00;68.30;;;;;;5020179;29;20053;-70
2021/10/08 11:56:33;;;;;;;15.65;14.38;;;16.00;66.60;;;;;;5012262;29;20787;-69
2021/10/08 11:59:06;;;;;;;15.65;14.45;;;16.00;67.30;;;;;;5017596;29;20879;-69
2021/10/08 12:01:39;;;;;;;15.90;14.70;;;16.00;66.60;;;;;;5016779;29;20094;-69
2021/10/08 12:04:19;;;;;;;15.40;14.20;;;16.00;66.50;;;;;;5002320;29;20046;-70
2021/10/08 12:06:51;;;;;;;15.77;14.57;;;16.00;66.80;;;;;;5018738;29;20524;-68
2021/10/08 12:09:23;;;;;;;15.68;14.48;;;15.90;66.70;;;;;;5021732;29;20060;-69
2021/10/08 12:11:57;;;;;;;15.77;14.57;;;15.90;66.10;;;;;;5019113;29;20056;-69
2021/10/08 12:14:30;;;;;;;15.25;14.05;;;15.90;67.20;;;;;;5020500;29;20812;-70
2021/10/08 12:17:03;;;;;;;15.68;14.43;;;15.90;67.10;;;;;;5018825;29;20049;-69
2021/10/08 12:19:36;;;;;;;15.52;14.23;;;15.90;67.80;;;;;;5019053;29;20068;-69
2021/10/08 12:22:23;;;;;;;15.65;14.45;;;15.90;67.20;;;;;;5016078;29;20105;-69
2021/10/08 12:25:06;;;;;;;16.25;14.95;;;16.10;67.20;;;;;;5019588;29;20572;-70
2021/10/08 12:27:38;;;;;;;16.15;14.82;;;15.90;66.30;;;;;;5017740;29;20152;-70
2021/10/08 12:30:12;;;;;;;16.25;14.82;;;16.00;66.20;;;;;;5017430;29;20137;-69
2021/10/08 12:33:01;;;;;;;23.38;15.95;;;15.90;66.00;;;;;;5015396;29;20722;-69
2021/10/08 12:35:32;;;;;;;16.52;15.18;;;15.80;66.40;;;;;;5012048;29;20064;-70
2021/10/08 12:38:04;;;;;;;15.77;14.45;;;15.80;66.30;;;;;;5011144;29;20447;-71
2021/10/08 12:40:41;;;;;;;16.15;14.65;;;15.70;65.50;;;;;;5010117;29;20058;-70
2021/10/08 12:43:20;;;;;;;15.90;14.65;;;15.80;66.30;;;;;;5011998;29;20049;-71
2021/10/08 12:45:54;;;;;;;15.90;14.70;;;15.80;66.40;;;;;;5010644;29;20075;-73
2021/10/08 12:48:28;;;;;;;15.32;14.13;;;15.80;66.40;;;;;;5014479;29;20215;-72
2021/10/08 12:51:03;;;;;;;15.85;14.55;;;15.80;65.70;;;;;;5015354;29;20053;-70
2021/10/08 12:53:35;;;;;;;16.67;15.30;;;15.90;66.00;;;;;;5018746;29;20056;-71
2021/10/08 12:56:22;;;;;;;16.17;14.80;;;15.80;66.60;;;;;;5014400;29;20606;-68
2021/10/08 12:58:54;;;;;;;15.48;14.27;;;15.70;66.20;;;;;;5017762;29;20508;-70
2021/10/08 13:01:26;;;;;;;16.05;14.77;;;15.60;65.60;;;;;;5015015;29;20556;-69
2021/10/08 13:04:17;;;;;;;16.30;15.00;;;15.60;66.90;;;;;;5014865;29;20048;-70
2021/10/08 13:06:50;;;;;;;16.25;14.95;;;15.50;67.50;;;;;;5015388;29;20113;-71
2021/10/08 13:09:22;;;;;;;16.00;14.70;;;15.40;66.70;;;;;;5001549;29;20197;-70
2021/10/08 13:11:55;;;;;;;15.52;14.23;;;15.30;66.50;;;;;;5012994;29;20076;-69
2021/10/08 13:14:28;;;;;;;16.02;14.73;;;15.30;67.30;;;;;;5017850;29;20045;-69
2021/10/08 13:17:15;;;;;;;16.67;15.25;;;15.20;67.50;;;;;;4991375;29;20050;-69
2021/10/08 13:19:47;;;;;;;15.18;14.00;;;15.10;68.00;;;;;;5019022;29;20102;-69
2021/10/08 13:22:24;;;;;;;15.68;14.35;;;15.00;67.80;;;;;;5017688;29;20050;-70